FNLU

Quatro de Fevereiro Airport

Luanda, Angola
METAR FNLU 190500Z 15005KT 8000 BKN020 BKN070 25/23 Q1012
Observed Flight Rules
Dec-19 @ 05:00 UTC (30 minutes ago) Marginal Visual Flight Rules
Wind Visibility Clouds
150° at 5 knots 7,998 meters
  • Broken at 2,000' AGL
  • Broken at 7,000' AGL
Temperatures Readings
Current 25°C / 77°F
Dewpoint 23°C / 73°F
Humidity 89%
Altimeter 29.88" Hg
Pressure 1012 hPa
Elevation 70
METAR FNLU 190500Z 15005KT 8000 BKN020 BKN070 25/23 Q1012
Observed Flight Rules
Dec-19 @ 05:00 UTC
(30 minutes ago)
MVFR
Wind Visibility
150° at 5 knots 7,998 meters
Clouds
  • Broken at 2,000' AGL
  • Broken at 7,000' AGL
Temperature Dewpoint
25°C / 77°F 23°C / 73°F
Humidity Altimeter Pressure
89% 29.88" Hg 1012 hPa